Bidford-on-avon, United Kingdom
Current Conditions -  °F | °C
As of 12:20 AM on Saturday 01 Nov 2014 (Local Time) from EGBB Reporting Station
Broken Clouds Broken Clouds  
Wind Chill: 61°   Ceiling: 2100
Heat Index: 61°   Visibility: 6mi
Dew Point: 57°   Wind: 10mph
Humidity: 88%   Direction: 170°S
Pressure: 29.85"   Gusts: NA
Location:  52.17°N, 1.86°W
Report Text: EGBB 010020Z 17009KT 9999 BKN021 16/14 Q1011
Loading
Personal Weather Stations






























Interactive Weather Map New forecast layout! Learn more

10-Day Weather Forecast

Advertisements
Track Severe Weather on mobile